createdAt,value
2023-05-12T00:00:00.185Z, 78.1
2023-05-12T00:02:00.106Z, 85.8
2023-05-12T00:04:00.251Z, 85.8
2023-05-12T00:06:00.131Z, 85.8
2023-05-12T00:08:00.141Z, 71.9
2023-05-12T00:10:00.171Z, 71.9
2023-05-12T00:12:00.126Z, 71.3
2023-05-12T00:14:00.184Z, 71.3
2023-05-12T00:16:00.170Z, 71.3
2023-05-12T00:18:00.249Z, 48.3
2023-05-12T00:20:00.162Z, 48.3
2023-05-12T00:22:00.135Z, 57.4
2023-05-12T00:24:00.152Z, 57.4
2023-05-12T00:26:00.136Z, 57.4
2023-05-12T00:28:00.163Z, 52.9
2023-05-12T00:30:00.139Z, 52.9
2023-05-12T00:32:00.304Z, 33.6
2023-05-12T00:34:00.152Z, 33.6
2023-05-12T00:36:00.144Z, 33.6
2023-05-12T00:38:00.105Z, 21.6
2023-05-12T00:40:00.126Z, 21.6
2023-05-12T00:42:00.120Z, 25.2
2023-05-12T00:44:00.138Z, 25.2
2023-05-12T00:46:00.245Z, 25.2
2023-05-12T00:48:00.261Z, 21
2023-05-12T00:50:00.141Z, 21
2023-05-12T00:52:00.126Z, 28.8
2023-05-12T00:54:00.073Z, 28.8
2023-05-12T00:56:00.046Z, 30.2
2023-05-12T00:58:00.070Z, 31.6
2023-05-12T01:00:00.064Z, 31.6
2023-05-12T01:02:00.056Z, 43.3
2023-05-12T01:04:00.059Z, 43.3
2023-05-12T01:06:00.047Z, 45.3
2023-05-12T01:08:00.060Z, 45.3
2023-05-12T01:10:00.059Z, 45.3
2023-05-12T01:12:00.073Z, 51.2
2023-05-12T01:14:00.060Z, 51.2
2023-05-12T01:16:00.032Z, 43.8
2023-05-12T01:18:00.086Z, 43.8
2023-05-12T01:20:00.059Z, 43.8
2023-05-12T01:22:00.012Z, 45.4
2023-05-12T01:24:00.114Z, 45.4
2023-05-12T01:26:00.118Z, 42.4
2023-05-12T01:28:00.142Z, 42.4
2023-05-12T01:30:00.208Z, 42.4
2023-05-12T01:32:00.130Z, 47.3
2023-05-12T01:34:00.132Z, 47.3
2023-05-12T01:36:00.149Z, 41.2
2023-05-12T01:38:00.117Z, 41.2
2023-05-12T01:40:00.150Z, 41.2
2023-05-12T01:42:00.149Z, 40.7
2023-05-12T01:44:00.109Z, 40.7
2023-05-12T01:46:00.203Z, 30.8
2023-05-12T01:48:00.270Z, 30.8
2023-05-12T01:50:00.134Z, 30.8
2023-05-12T01:52:00.140Z, 29.9
2023-05-12T01:54:00.080Z, 29.9
2023-05-12T01:56:00.079Z, 26.1
2023-05-12T01:58:00.048Z, 26.1
2023-05-12T02:00:00.055Z, 26.1
2023-05-12T02:02:00.112Z, 25.7
2023-05-12T02:04:00.245Z, 25.7
2023-05-12T02:06:00.037Z, 25.3
2023-05-12T02:08:00.026Z, 25.3
2023-05-12T02:10:00.016Z, 25.3
2023-05-12T02:12:00.007Z, 20.8
2023-05-12T02:13:59.983Z, 20.8
2023-05-12T02:16:00.036Z, 17.4
2023-05-12T02:18:00.043Z, 17.4
2023-05-12T02:19:59.951Z, 17.4
2023-05-12T02:21:59.941Z, 17.2
2023-05-12T02:24:00.153Z, 17.2
2023-05-12T02:26:00.150Z, 12.8
2023-05-12T02:28:00.110Z, 12.8
2023-05-12T02:30:00.169Z, 12.8
2023-05-12T02:32:00.166Z, 14.6
2023-05-12T02:34:00.137Z, 14.6
2023-05-12T02:36:00.139Z, 11.7
2023-05-12T02:38:00.117Z, 11.7
2023-05-12T02:40:00.115Z, 11.7
2023-05-12T02:42:00.117Z, 9.2
2023-05-12T02:44:00.136Z, 9.2
2023-05-12T02:46:00.190Z, 8.4
2023-05-12T02:48:00.166Z, 8.4
2023-05-12T02:50:00.158Z, 8.4
2023-05-12T02:52:00.101Z, 9.3
2023-05-12T02:54:00.069Z, 9.3
2023-05-12T02:56:00.052Z, 9.1
2023-05-12T02:58:00.045Z, 9.1
2023-05-12T03:00:00.072Z, 9.1
2023-05-12T03:02:00.259Z, 10.8
2023-05-12T03:04:00.056Z, 10.8
2023-05-12T03:06:00.048Z, 9.6
2023-05-12T03:08:00.042Z, 9.6
2023-05-12T03:10:00.068Z, 9.6
2023-05-12T03:12:00.074Z, 11.7
2023-05-12T03:14:00.062Z, 11.7
2023-05-12T03:16:00.073Z, 12.8
2023-05-12T03:18:00.107Z, 12.8
2023-05-12T03:20:00.065Z, 12.8
2023-05-12T03:22:00.055Z, 8.7
2023-05-12T03:24:00.120Z, 8.7
2023-05-12T03:26:00.086Z, 6.2
2023-05-12T03:28:00.089Z, 6.2
2023-05-12T03:30:00.155Z, 6.2
2023-05-12T03:32:00.134Z, 8.5
2023-05-12T03:34:00.134Z, 8.5
2023-05-12T03:36:00.108Z, 7.2
2023-05-12T03:38:00.109Z, 7.2
2023-05-12T03:40:00.112Z, 7.2
2023-05-12T03:42:00.160Z, 8.2
2023-05-12T03:44:00.124Z, 8.2
2023-05-12T03:46:00.270Z, 8.8
2023-05-12T03:48:00.168Z, 8.8
2023-05-12T03:50:00.125Z, 8.8
2023-05-12T03:52:00.137Z, 6.5
2023-05-12T03:54:00.063Z, 6.5
2023-05-12T03:56:00.069Z, 4.1
2023-05-12T03:58:00.063Z, 4.1
2023-05-12T04:00:00.062Z, 4.1
2023-05-12T04:02:00.073Z, 4
2023-05-12T04:04:00.163Z, 4
2023-05-12T04:06:00.140Z, 2
2023-05-12T04:08:00.048Z, 2
2023-05-12T04:10:00.039Z, 2
2023-05-12T04:12:00.064Z, 3.5
2023-05-12T04:14:00.050Z, 3.5
2023-05-12T04:16:00.115Z, 3.3
2023-05-12T04:18:00.178Z, 3.3
2023-05-12T04:20:00.051Z, 3.3
2023-05-12T04:22:00.052Z, 3.4
2023-05-12T04:24:00.134Z, 3.4
2023-05-12T04:26:00.102Z, 3
2023-05-12T04:28:00.084Z, 3
2023-05-12T04:30:00.159Z, 3
2023-05-12T04:32:00.160Z, 1.2
2023-05-12T04:34:00.130Z, 1.2
2023-05-12T04:36:00.130Z, 1.3
2023-05-12T04:38:00.152Z, 1.3
2023-05-12T04:40:00.159Z, 1.3
2023-05-12T04:42:00.121Z, 1.2
2023-05-12T04:44:00.637Z, 1.2
2023-05-12T04:46:00.492Z, 1.1
2023-05-12T04:48:00.179Z, 1.1
2023-05-12T04:50:00.153Z, 1.2
2023-05-12T04:52:00.113Z, 1.7
2023-05-12T04:54:00.086Z, 1.7
2023-05-12T04:56:00.056Z, 0.6
2023-05-12T04:58:00.073Z, 0.6
2023-05-12T05:00:00.087Z, 1.3
2023-05-12T05:02:00.065Z, 1.6
2023-05-12T05:04:00.180Z, 1.6
2023-05-12T05:06:00.075Z, 1
2023-05-12T05:08:00.078Z, 1
2023-05-12T05:10:00.083Z, 2.6
2023-05-12T05:12:00.058Z, 2.6
2023-05-12T05:14:00.055Z, 2.6
2023-05-12T05:16:00.108Z, 2.7
2023-05-12T05:18:01.773Z, 2.7
2023-05-12T05:20:00.311Z, 3.1
2023-05-12T05:22:00.033Z, 3.1
2023-05-12T05:24:00.153Z, 3.1
2023-05-12T05:26:00.148Z, 3.3
2023-05-12T05:28:00.105Z, 3.3
2023-05-12T05:30:00.181Z, 6.2
2023-05-12T05:32:00.130Z, 6.2
2023-05-12T05:34:00.125Z, 6.2
2023-05-12T05:36:00.159Z, 1.6
2023-05-12T05:38:00.128Z, 1.6
2023-05-12T05:40:00.128Z, 4.4
2023-05-12T05:42:00.126Z, 4.4
2023-05-12T05:44:00.151Z, 4.4
2023-05-12T05:46:00.115Z, 1.2
2023-05-12T05:48:00.195Z, 1.2
2023-05-12T05:50:00.157Z, 1.4
2023-05-12T05:52:00.115Z, 1.4
2023-05-12T05:54:00.067Z, 1.4
2023-05-12T05:56:00.081Z, 3.3
2023-05-12T05:58:00.115Z, 3.3
2023-05-12T06:00:00.050Z, 3.9
2023-05-12T06:02:00.146Z, 3.9
2023-05-12T06:04:00.174Z, 3.9
2023-05-12T06:06:00.036Z, 7.2
2023-05-12T06:08:00.034Z, 7.2
2023-05-12T06:10:00.041Z, 8.5
2023-05-12T06:12:00.054Z, 8.5
2023-05-12T06:14:00.037Z, 8.5
2023-05-12T06:16:00.060Z, 10.1
2023-05-12T06:18:00.115Z, 10.1
2023-05-12T06:20:00.026Z, 10.3
2023-05-12T06:22:00.009Z, 10.3
2023-05-12T06:24:00.148Z, 10.3
2023-05-12T06:26:00.121Z, 9.7
2023-05-12T06:28:00.131Z, 9.7
2023-05-12T06:30:00.165Z, 8.3
2023-05-12T06:32:00.152Z, 8.3
2023-05-12T06:34:00.128Z, 8.3
2023-05-12T06:36:00.140Z, 7.1
2023-05-12T06:38:00.107Z, 7.1
2023-05-12T06:40:00.130Z, 7.2
2023-05-12T06:42:00.115Z, 7.2
2023-05-12T06:44:00.151Z, 7.2
2023-05-12T06:46:00.120Z, 7.1
2023-05-12T06:48:00.257Z, 7.1
2023-05-12T06:50:00.180Z, 5.3
2023-05-12T06:52:00.141Z, 5.3
2023-05-12T06:54:00.076Z, 5.3
2023-05-12T06:56:00.084Z, 7.8
2023-05-12T06:58:00.059Z, 7.8
2023-05-12T07:00:00.064Z, 6.7
2023-05-12T07:02:00.154Z, 6.7
2023-05-12T07:04:00.140Z, 6.7
2023-05-12T07:06:00.068Z, 4.8
2023-05-12T07:08:00.045Z, 4.8
2023-05-12T07:10:00.053Z, 6.2
2023-05-12T07:12:00.071Z, 6.2
2023-05-12T07:14:00.053Z, 6.2
2023-05-12T07:16:00.088Z, 5.6
2023-05-12T07:18:00.152Z, 5.6
2023-05-12T07:20:00.054Z, 6.1
2023-05-12T07:22:00.101Z, 6.1
2023-05-12T07:24:00.133Z, 6.1
2023-05-12T07:26:00.121Z, 4.2
2023-05-12T07:28:00.102Z, 4.2
2023-05-12T07:30:00.112Z, 4.9
2023-05-12T07:32:00.095Z, 4.9
2023-05-12T07:34:00.126Z, 4.9
2023-05-12T07:36:00.120Z, 4.5
2023-05-12T07:38:00.175Z, 4.5
2023-05-12T07:40:00.113Z, 4.7
2023-05-12T07:42:00.105Z, 4.7
2023-05-12T07:44:00.117Z, 4.7
2023-05-12T07:46:00.106Z, 5
2023-05-12T07:48:00.171Z, 5
2023-05-12T07:50:00.162Z, 5.8
2023-05-12T07:52:00.141Z, 5.8
2023-05-12T07:54:00.158Z, 5.8
2023-05-12T07:56:00.059Z, 4.7
2023-05-12T07:58:00.053Z, 4.7
2023-05-12T08:00:00.070Z, 4.4
2023-05-12T08:02:00.164Z, 4.4
2023-05-12T08:04:00.276Z, 4.4
2023-05-12T08:06:00.058Z, 6.5
2023-05-12T08:08:00.030Z, 6.5
2023-05-12T08:10:00.053Z, 5.6
2023-05-12T08:12:00.075Z, 5.6
2023-05-12T08:14:00.053Z, 5.6
2023-05-12T08:16:00.045Z, 4.7
2023-05-12T08:18:00.125Z, 4.7
2023-05-12T08:20:00.063Z, 5.1
2023-05-12T08:22:00.045Z, 5.1
2023-05-12T08:24:00.107Z, 5.1
2023-05-12T08:26:00.148Z, 5.1
2023-05-12T08:28:00.134Z, 5.1
2023-05-12T08:30:00.186Z, 5.1
2023-05-12T08:32:00.144Z, 5.1
2023-05-12T08:34:09.699Z, 5.1
2023-05-12T08:36:00.129Z, 4.4
2023-05-12T08:38:00.154Z, 4.4
2023-05-12T08:40:00.157Z, 4.8
2023-05-12T08:42:00.121Z, 4.8
2023-05-12T08:44:00.191Z, 4.8
2023-05-12T08:46:00.189Z, 5.4
2023-05-12T08:48:00.214Z, 5.4
2023-05-12T08:50:00.122Z, 4.7
2023-05-12T08:52:00.126Z, 4.7
2023-05-12T08:54:00.066Z, 4.7
2023-05-12T08:57:09.534Z, 4
2023-05-12T08:58:00.058Z, 4
2023-05-12T09:00:00.100Z, 4.2
2023-05-12T09:02:00.131Z, 4.2
2023-05-12T09:04:00.070Z, 4.2
2023-05-12T09:06:00.093Z, 5.5
2023-05-12T09:08:00.050Z, 5.5
2023-05-12T09:10:00.072Z, 5.2
2023-05-12T09:12:00.118Z, 5.2
2023-05-12T09:14:00.084Z, 5.1
2023-05-12T09:16:00.135Z, 5.1
2023-05-12T09:18:00.204Z, 5.1
2023-05-12T09:20:00.089Z, 4.4
2023-05-12T09:22:00.048Z, 4.4
2023-05-12T09:24:00.162Z, 5
2023-05-12T09:26:00.189Z, 5
2023-05-12T09:28:00.128Z, 5
2023-05-12T09:30:00.144Z, 5.3
2023-05-12T09:32:00.226Z, 5.3
2023-05-12T09:34:00.158Z, 4
2023-05-12T09:36:00.164Z, 4
2023-05-12T09:38:00.127Z, 4
2023-05-12T09:40:00.182Z, 6.2
2023-05-12T09:42:00.160Z, 6.2
2023-05-12T09:44:00.133Z, 4.7
2023-05-12T09:46:00.199Z, 4.7
2023-05-12T09:48:00.268Z, 4.7
2023-05-12T09:50:00.117Z, 5.4
2023-05-12T09:52:00.130Z, 5.4
2023-05-12T09:54:00.087Z, 5.2
2023-05-12T09:56:00.061Z, 5.2
2023-05-12T09:58:00.094Z, 5.2
2023-05-12T10:00:00.125Z, 4.3
2023-05-12T10:02:00.146Z, 4.3
2023-05-12T10:04:00.111Z, 3.5
2023-05-12T10:06:00.072Z, 3.5
2023-05-12T10:08:00.065Z, 3.5
2023-05-12T10:10:00.073Z, 6.3
2023-05-12T10:12:00.108Z, 6.3
2023-05-12T10:14:00.049Z, 4.5
2023-05-12T10:16:00.056Z, 4.5
2023-05-12T10:18:00.132Z, 4.5
2023-05-12T10:20:00.065Z, 2.9
2023-05-12T10:22:00.045Z, 2.9
2023-05-12T10:24:00.125Z, 5.1
2023-05-12T10:26:00.143Z, 5.1
2023-05-12T10:28:00.125Z, 5.1
2023-05-12T10:30:00.152Z, 4.9
2023-05-12T10:32:00.115Z, 4.9
2023-05-12T10:34:00.160Z, 3.3
2023-05-12T10:36:00.142Z, 3.3
2023-05-12T10:38:00.125Z, 3.3
2023-05-12T10:40:00.159Z, 4.4
2023-05-12T10:42:00.103Z, 4.4
2023-05-12T10:44:00.170Z, 6.2
2023-05-12T10:46:00.157Z, 6.2
2023-05-12T10:48:00.201Z, 6.2
2023-05-12T10:50:00.126Z, 4.5
2023-05-12T10:52:00.107Z, 4.5
2023-05-12T10:54:00.133Z, 7.6
2023-05-12T10:56:00.335Z, 7.6
2023-05-12T10:58:00.300Z, 7.6
2023-05-12T11:00:00.814Z, 6.5
2023-05-12T11:02:00.549Z, 6.5
2023-05-12T11:04:00.279Z, 5.1
2023-05-12T11:06:01.017Z, 5.1
2023-05-12T11:08:00.674Z, 5.1
2023-05-12T11:10:01.554Z, 5.7
2023-05-12T11:12:00.555Z, 5.7
2023-05-12T11:14:00.093Z, 6.5
2023-05-12T11:16:00.204Z, 6.5
2023-05-12T11:18:00.202Z, 6.5
2023-05-12T11:20:00.055Z, 5.3
2023-05-12T11:22:00.079Z, 5.3
2023-05-12T11:24:00.150Z, 5.2
2023-05-12T11:26:00.284Z, 5.2
2023-05-12T11:28:00.130Z, 5.2
2023-05-12T11:30:00.178Z, 6.1
2023-05-12T11:32:00.338Z, 6.1
2023-05-12T11:34:10.807Z, 8.9
2023-05-12T11:36:00.136Z, 8.9
2023-05-12T11:38:00.168Z, 8.9
2023-05-12T11:40:00.197Z, 5.6
2023-05-12T11:42:09.444Z, 5.6
2023-05-12T11:44:00.137Z, 8.5
2023-05-12T11:46:00.211Z, 8.5
2023-05-12T11:48:00.163Z, 8.5
2023-05-12T11:50:00.141Z, 7.5
2023-05-12T11:52:00.137Z, 7.5
2023-05-12T11:54:00.061Z, 9.9
2023-05-12T11:56:00.051Z, 9.9
2023-05-12T11:58:00.078Z, 9.9
2023-05-12T12:00:00.162Z, 8.3
2023-05-12T12:02:00.127Z, 8.3
2023-05-12T12:04:00.187Z, 8.9
2023-05-12T12:06:00.127Z, 8.9
2023-05-12T12:08:00.128Z, 8.9
2023-05-12T12:10:00.081Z, 5.9
2023-05-12T12:12:00.123Z, 5.9
2023-05-12T12:14:00.065Z, 3.9
2023-05-12T12:16:00.122Z, 3.9
2023-05-12T12:18:00.165Z, 3.9
2023-05-12T12:20:00.089Z, 4
2023-05-12T12:22:00.041Z, 4
2023-05-12T12:24:00.137Z, 3.9
2023-05-12T12:26:00.118Z, 3.9
2023-05-12T12:28:00.134Z, 3.9
2023-05-12T12:30:00.187Z, 4.3
2023-05-12T12:32:00.135Z, 4.3
2023-05-12T12:34:00.151Z, 6.7
2023-05-12T12:36:00.142Z, 6.7
2023-05-12T12:38:00.137Z, 6.7
2023-05-12T12:40:00.145Z, 3.7
2023-05-12T12:42:00.132Z, 3.7
2023-05-12T12:44:00.113Z, 3.3
2023-05-12T12:46:00.127Z, 3.3
2023-05-12T12:48:00.186Z, 3.3
2023-05-12T12:50:00.189Z, 3.7
2023-05-12T12:52:00.125Z, 3.7
2023-05-12T12:54:00.082Z, 5.5
2023-05-12T12:56:00.082Z, 5.5
2023-05-12T12:58:00.058Z, 5.5
2023-05-12T13:00:00.105Z, 4
2023-05-12T13:02:00.252Z, 4
2023-05-12T13:04:00.046Z, 8.3
2023-05-12T13:06:00.053Z, 8.3
2023-05-12T13:08:00.010Z, 8.3
2023-05-12T13:10:00.069Z, 6.7
2023-05-12T13:12:00.098Z, 6.7
2023-05-12T13:14:00.055Z, 9.2
2023-05-12T13:16:00.090Z, 9.2
2023-05-12T13:18:00.141Z, 9.2
2023-05-12T13:20:00.066Z, 7.1
2023-05-12T13:22:00.080Z, 7.1
2023-05-12T13:24:00.135Z, 7.2
2023-05-12T13:26:00.101Z, 7.2
2023-05-12T13:28:00.102Z, 7.2
2023-05-12T13:30:00.144Z, 5.5
2023-05-12T13:32:00.108Z, 5.5
2023-05-12T13:34:00.102Z, 7.5
2023-05-12T13:36:00.181Z, 7.5
2023-05-12T13:38:00.095Z, 7.5
2023-05-12T13:40:00.096Z, 4.4
2023-05-12T13:42:00.130Z, 4.4
2023-05-12T13:44:00.112Z, 3.8
2023-05-12T13:46:00.128Z, 3.8
2023-05-12T13:48:00.289Z, 3.8
2023-05-12T13:50:00.122Z, 4.8
2023-05-12T13:52:00.106Z, 4.8
2023-05-12T13:54:00.144Z, 3.9
2023-05-12T13:56:00.111Z, 3.9
2023-05-12T13:58:00.057Z, 3.9
2023-05-12T14:00:00.152Z, 5.1
2023-05-12T14:02:00.169Z, 5.1
2023-05-12T14:04:00.071Z, 3.4
2023-05-12T14:06:00.145Z, 3.4
2023-05-12T14:08:00.058Z, 3.4
2023-05-12T14:10:00.060Z, 2.9
2023-05-12T14:12:00.061Z, 2.9
2023-05-12T14:14:00.053Z, 5.6
2023-05-12T14:16:00.119Z, 5.6
2023-05-12T14:18:00.113Z, 5.1
2023-05-12T14:20:00.051Z, 3.9
2023-05-12T14:22:00.053Z, 3.9
2023-05-12T14:24:00.114Z, 3.7
2023-05-12T14:26:00.126Z, 3.7
2023-05-12T14:28:00.164Z, 3.1
2023-05-12T14:30:00.210Z, 2.9
2023-05-12T14:32:00.161Z, 2.9
2023-05-12T14:34:00.161Z, 5.2
2023-05-12T14:36:07.198Z, 5.2
2023-05-12T14:38:00.151Z, 3.2
2023-05-12T14:40:00.173Z, 3.2
2023-05-12T14:42:00.139Z, 3.2
2023-05-12T14:44:00.103Z, 3.7
2023-05-12T14:46:00.170Z, 3.7
2023-05-12T14:48:00.187Z, 3.9
2023-05-12T14:50:00.165Z, 3.9
2023-05-12T14:52:00.125Z, 3.9
2023-05-12T14:54:00.083Z, 2.6
2023-05-12T14:56:00.115Z, 2.6
2023-05-12T14:58:00.094Z, 3.2
2023-05-12T15:00:00.071Z, 3.2
2023-05-12T15:02:00.137Z, 3.2
2023-05-12T15:04:00.143Z, 2.9
2023-05-12T15:08:00.057Z, 4.1
2023-05-12T15:10:00.058Z, 4.1
2023-05-12T15:12:00.075Z, 4.1
2023-05-12T15:14:00.077Z, 2.4
2023-05-12T15:16:00.060Z, 2.4
2023-05-12T15:18:00.164Z, 2.5
2023-05-12T15:20:00.106Z, 2.5
2023-05-12T15:22:00.056Z, 2.5
2023-05-12T15:24:00.137Z, 2.7
2023-05-12T15:26:07.001Z, 2.7
2023-05-12T15:28:00.144Z, 2.9
2023-05-12T15:30:00.186Z, 2.9
2023-05-12T15:32:00.164Z, 2.9
2023-05-12T15:34:00.143Z, 3.1
2023-05-12T15:36:00.173Z, 3.1
2023-05-12T15:38:00.190Z, 3.8
2023-05-12T15:40:00.183Z, 3.8
2023-05-12T15:42:00.151Z, 3.8
2023-05-12T15:44:00.146Z, 2.1
2023-05-12T15:46:00.189Z, 2.1
2023-05-12T15:48:00.260Z, 2.9
2023-05-12T15:50:00.151Z, 2.9
2023-05-12T15:52:00.145Z, 2.9
2023-05-12T15:54:00.074Z, 2.6
2023-05-12T15:56:00.062Z, 2.6
2023-05-12T15:58:00.075Z, 5.9
2023-05-12T16:00:00.112Z, 5.9
2023-05-12T16:02:00.143Z, 5.9
2023-05-12T16:04:00.242Z, 5
2023-05-12T16:06:00.031Z, 5
2023-05-12T16:08:00.030Z, 4.9
2023-05-12T16:10:00.057Z, 4.9
2023-05-12T16:12:00.164Z, 4.9
2023-05-12T16:14:00.055Z, 6.4
2023-05-12T16:16:00.121Z, 6.4
2023-05-12T16:18:00.135Z, 4.8
2023-05-12T16:20:00.151Z, 4.8
2023-05-12T16:22:00.379Z, 4.8
2023-05-12T16:24:00.105Z, 5.4
2023-05-12T16:26:00.091Z, 5.4
2023-05-12T16:28:00.097Z, 4.7
2023-05-12T16:30:00.211Z, 4.7
2023-05-12T16:32:00.168Z, 4.7
2023-05-12T16:34:00.100Z, 6.9
2023-05-12T16:36:00.148Z, 6.9
2023-05-12T16:38:00.103Z, 6
2023-05-12T16:40:00.233Z, 6
2023-05-12T16:42:00.141Z, 6
2023-05-12T16:44:00.089Z, 5.1
2023-05-12T16:46:00.155Z, 5.1
2023-05-12T16:48:00.225Z, 4.6
2023-05-12T16:50:00.241Z, 4.6
2023-05-12T16:52:00.088Z, 4.6
2023-05-12T16:54:00.140Z, 4.9
2023-05-12T16:56:00.095Z, 4.9
2023-05-12T16:58:00.123Z, 6.2
2023-05-12T17:00:00.143Z, 6.2
2023-05-12T17:02:00.324Z, 6.2
2023-05-12T17:04:00.192Z, 7
2023-05-12T17:06:00.123Z, 7
2023-05-12T17:08:00.129Z, 5.8
2023-05-12T17:10:00.091Z, 5.8
2023-05-12T17:12:00.126Z, 5.8
2023-05-12T17:14:00.111Z, 6.7
2023-05-12T17:16:00.143Z, 6.7
2023-05-12T17:18:00.137Z, 7.3
2023-05-12T17:20:00.255Z, 7.3
2023-05-12T17:22:00.138Z, 7.3
2023-05-12T17:24:00.160Z, 6.7
2023-05-12T17:26:00.076Z, 6.7
2023-05-12T17:28:00.060Z, 6
2023-05-12T17:30:00.081Z, 6
2023-05-12T17:32:00.123Z, 6
2023-05-12T17:34:00.060Z, 8.4
2023-05-12T17:36:10.793Z, 8.4
2023-05-12T17:38:00.138Z, 6.2
2023-05-12T17:40:00.059Z, 6.2
2023-05-12T17:42:00.072Z, 6.2
2023-05-12T17:44:00.076Z, 7.3
2023-05-12T17:46:00.076Z, 7.3
2023-05-12T17:48:00.158Z, 6.6
2023-05-12T17:50:00.104Z, 6.6
2023-05-12T17:52:00.050Z, 6.6
2023-05-12T17:54:00.121Z, 6.7
2023-05-12T17:56:00.185Z, 6.7
2023-05-12T17:58:00.125Z, 7.8
2023-05-12T18:00:00.191Z, 7.8
2023-05-12T18:02:00.162Z, 7.8
2023-05-12T18:04:00.138Z, 7.3
2023-05-12T18:06:00.167Z, 7.3
2023-05-12T18:08:00.132Z, 6.5
2023-05-12T18:10:00.184Z, 6.5
2023-05-12T18:12:00.137Z, 6.5
2023-05-12T18:14:00.116Z, 5.1
2023-05-12T18:16:00.133Z, 5.1
2023-05-12T18:18:00.223Z, 5.8
2023-05-12T18:20:00.131Z, 5.8
2023-05-12T18:22:00.148Z, 5.8
2023-05-12T18:24:00.081Z, 7.2
2023-05-12T18:26:00.065Z, 7.2
2023-05-12T18:28:00.099Z, 6
2023-05-12T18:30:00.126Z, 6
2023-05-12T18:32:00.059Z, 6
2023-05-12T18:34:00.053Z, 6.9
2023-05-12T18:36:00.059Z, 6.9
2023-05-12T18:38:00.064Z, 6.5
2023-05-12T18:40:00.051Z, 6.5
2023-05-12T18:42:00.054Z, 6.5
2023-05-12T18:44:00.051Z, 6.3
2023-05-12T18:46:00.143Z, 6.3
2023-05-12T18:48:00.155Z, 6.4
2023-05-12T18:50:00.085Z, 6.4
2023-05-12T18:52:00.087Z, 6.4
2023-05-12T18:54:00.126Z, 5.2
2023-05-12T18:56:00.142Z, 5.2
2023-05-12T18:58:00.150Z, 7.6
2023-05-12T19:00:00.226Z, 7.6
2023-05-12T19:02:00.278Z, 7.6
2023-05-12T19:04:00.164Z, 6.2
2023-05-12T19:06:00.155Z, 6.2
2023-05-12T19:08:00.157Z, 5.9
2023-05-12T19:10:00.151Z, 5.9
2023-05-12T19:12:00.128Z, 5.9
2023-05-12T19:14:00.124Z, 6.8
2023-05-12T19:16:00.169Z, 6.8
2023-05-12T19:18:00.192Z, 10.2
2023-05-12T19:20:00.172Z, 10.2
2023-05-12T19:22:00.153Z, 10.2
2023-05-12T19:24:00.107Z, 10.3
2023-05-12T19:26:00.106Z, 10.3
2023-05-12T19:28:00.140Z, 11.6
2023-05-12T19:30:00.160Z, 11.6
2023-05-12T19:32:00.118Z, 11.6
2023-05-12T19:34:00.099Z, 9.1
2023-05-12T19:36:00.115Z, 9.1
2023-05-12T19:38:00.052Z, 10.2
2023-05-12T19:40:00.063Z, 10.2
2023-05-12T19:42:00.057Z, 8.6
2023-05-12T19:44:00.102Z, 7
2023-05-12T19:46:00.155Z, 7
2023-05-12T19:48:00.142Z, 8.1
2023-05-12T19:50:00.074Z, 8.1
2023-05-12T19:52:00.047Z, 8.8
2023-05-12T19:54:00.144Z, 8.8
2023-05-12T19:56:00.122Z, 8.8
2023-05-12T19:58:00.150Z, 7.8
2023-05-12T20:00:00.190Z, 7.8
2023-05-12T20:02:00.145Z, 8.9
2023-05-12T20:04:00.124Z, 8.9
2023-05-12T20:06:00.177Z, 8.9
2023-05-12T20:08:00.159Z, 7.3
2023-05-12T20:10:00.141Z, 7.3
2023-05-12T20:12:00.137Z, 9.2
2023-05-12T20:14:00.135Z, 9.2
2023-05-12T20:16:00.134Z, 9.2
2023-05-12T20:18:00.258Z, 7.4
2023-05-12T20:20:00.167Z, 7.4
2023-05-12T20:22:00.146Z, 8.1
2023-05-12T20:24:00.101Z, 8.1
2023-05-12T20:26:00.076Z, 8.1
2023-05-12T20:28:00.065Z, 8.3
2023-05-12T20:30:00.124Z, 8.3
2023-05-12T20:32:00.076Z, 9.5
2023-05-12T20:34:00.074Z, 9.5
2023-05-12T20:36:00.064Z, 9.5
2023-05-12T20:38:00.040Z, 10.2
2023-05-12T20:40:00.065Z, 10.2
2023-05-12T20:42:00.144Z, 9.2
2023-05-12T20:44:00.051Z, 9.2
2023-05-12T20:46:00.177Z, 9.2
2023-05-12T20:48:00.226Z, 10.6
2023-05-12T20:50:00.084Z, 10.6
2023-05-12T20:52:00.064Z, 11.5
2023-05-12T20:54:00.110Z, 11.5
2023-05-12T20:56:00.109Z, 11.5
2023-05-12T20:58:00.160Z, 11.1
2023-05-12T21:00:00.122Z, 11.1
2023-05-12T21:02:00.192Z, 9.3
2023-05-12T21:04:00.167Z, 9.3
2023-05-12T21:06:00.118Z, 9.3
2023-05-12T21:08:00.191Z, 10.8
2023-05-12T21:10:00.261Z, 10.8
2023-05-12T21:12:00.181Z, 9.1
2023-05-12T21:14:00.118Z, 9.1
2023-05-12T21:16:00.175Z, 9.1
2023-05-12T21:18:00.236Z, 8.4
2023-05-12T21:20:00.129Z, 8.4
2023-05-12T21:22:00.126Z, 9
2023-05-12T21:24:00.147Z, 9
2023-05-12T21:26:00.052Z, 9
2023-05-12T21:28:00.065Z, 9.8
2023-05-12T21:30:00.090Z, 9.8
2023-05-12T21:32:00.119Z, 11.8
2023-05-12T21:34:00.093Z, 11.8
2023-05-12T21:36:00.057Z, 11.8
2023-05-12T21:38:00.049Z, 11.9
2023-05-12T21:40:00.196Z, 11.9
2023-05-12T21:42:00.095Z, 13.4
2023-05-12T21:44:00.058Z, 13.4
2023-05-12T21:46:00.064Z, 13.4
2023-05-12T21:48:00.140Z, 11.5
2023-05-12T21:50:00.043Z, 11.5
2023-05-12T21:52:00.040Z, 9.6
2023-05-12T21:54:00.141Z, 9.6
2023-05-12T21:56:00.103Z, 9.6
2023-05-12T21:58:00.110Z, 9.2
2023-05-12T22:00:00.175Z, 9.2
2023-05-12T22:02:00.166Z, 9.7
2023-05-12T22:04:00.184Z, 9.7
2023-05-12T22:06:00.130Z, 9.7
2023-05-12T22:08:00.111Z, 9.6
2023-05-12T22:10:00.202Z, 9.6
2023-05-12T22:12:00.127Z, 7.9
2023-05-12T22:14:00.147Z, 7.9
2023-05-12T22:16:00.232Z, 7.9
2023-05-12T22:18:00.208Z, 9.4
2023-05-12T22:20:00.193Z, 9.4
2023-05-12T22:22:00.174Z, 14.1
2023-05-12T22:24:00.085Z, 14.1
2023-05-12T22:26:00.098Z, 14.1
2023-05-12T22:28:00.072Z, 9
2023-05-12T22:30:00.052Z, 9
2023-05-12T22:32:00.061Z, 15.3
2023-05-12T22:34:00.053Z, 15.3
2023-05-12T22:36:00.094Z, 15.3
2023-05-12T22:38:00.050Z, 9.7
2023-05-12T22:40:00.057Z, 9.7
2023-05-12T22:42:00.133Z, 10.5
2023-05-12T22:44:00.043Z, 10.5
2023-05-12T22:46:00.065Z, 10.5
2023-05-12T22:48:00.151Z, 11.7
2023-05-12T22:50:00.096Z, 11.7
2023-05-12T22:52:00.068Z, 11
2023-05-12T22:54:00.120Z, 11
2023-05-12T22:56:00.141Z, 11
2023-05-12T22:58:00.149Z, 13.6
2023-05-12T23:00:00.164Z, 13.6
2023-05-12T23:02:00.121Z, 10
2023-05-12T23:04:00.251Z, 10
2023-05-12T23:06:00.120Z, 10
2023-05-12T23:08:00.133Z, 9.5
2023-05-12T23:10:00.180Z, 9.5
2023-05-12T23:12:00.115Z, 12.7
2023-05-12T23:14:00.170Z, 12.7
2023-05-12T23:16:00.172Z, 12.7
2023-05-12T23:18:00.166Z, 10.5
2023-05-12T23:20:00.135Z, 10.5
2023-05-12T23:22:00.141Z, 10.3
2023-05-12T23:24:00.081Z, 10.3
2023-05-12T23:26:00.069Z, 10.3
2023-05-12T23:28:00.066Z, 15.1
2023-05-12T23:30:00.065Z, 15.1
2023-05-12T23:32:00.197Z, 14.7
2023-05-12T23:34:00.063Z, 14.7
2023-05-12T23:36:00.069Z, 14.3
2023-05-12T23:38:00.056Z, 13.1
2023-05-12T23:40:00.092Z, 13.1
2023-05-12T23:42:00.128Z, 14.5
2023-05-12T23:44:00.050Z, 14.5
2023-05-12T23:46:00.140Z, 13.9
2023-05-12T23:48:00.176Z, 13.9
2023-05-12T23:50:00.051Z, 13.9
2023-05-12T23:52:00.054Z, 15.8
2023-05-12T23:54:00.117Z, 15.8
2023-05-12T23:56:00.128Z, 13.3
2023-05-12T23:58:00.115Z, 13.3
